sensor_id;sensor_type;location;lat;lon;timestamp;P1;durP1;ratioP1;P2;durP2;ratioP2
80957;SDS011;70419;42.700;23.316;2023-10-08T00:00:44;9.53;;;4.40;;
80957;SDS011;70419;42.700;23.316;2023-10-08T00:03:12;10.17;;;4.53;;
80957;SDS011;70419;42.700;23.316;2023-10-08T00:05:39;11.95;;;4.78;;
80957;SDS011;70419;42.700;23.316;2023-10-08T00:08:06;10.13;;;3.80;;
80957;SDS011;70419;42.700;23.316;2023-10-08T00:10:39;12.80;;;5.13;;
80957;SDS011;70419;42.700;23.316;2023-10-08T00:13:07;10.93;;;5.30;;
80957;SDS011;70419;42.700;23.316;2023-10-08T00:15:34;11.02;;;4.95;;
80957;SDS011;70419;42.700;23.316;2023-10-08T00:18:02;12.07;;;4.90;;
80957;SDS011;70419;42.700;23.316;2023-10-08T00:20:30;11.20;;;4.55;;
80957;SDS011;70419;42.700;23.316;2023-10-08T00:23:08;11.45;;;4.75;;
80957;SDS011;70419;42.700;23.316;2023-10-08T00:25:34;20.33;;;5.57;;
80957;SDS011;70419;42.700;23.316;2023-10-08T00:28:10;13.25;;;5.57;;
80957;SDS011;70419;42.700;23.316;2023-10-08T00:30:38;13.13;;;4.97;;
80957;SDS011;70419;42.700;23.316;2023-10-08T00:33:06;11.40;;;5.57;;
80957;SDS011;70419;42.700;23.316;2023-10-08T00:35:36;12.85;;;5.03;;
80957;SDS011;70419;42.700;23.316;2023-10-08T00:38:04;11.40;;;4.80;;
80957;SDS011;70419;42.700;23.316;2023-10-08T00:40:36;9.60;;;4.25;;
80957;SDS011;70419;42.700;23.316;2023-10-08T00:43:03;12.13;;;4.43;;
80957;SDS011;70419;42.700;23.316;2023-10-08T00:45:35;10.68;;;4.65;;
80957;SDS011;70419;42.700;23.316;2023-10-08T00:48:08;10.77;;;4.47;;
80957;SDS011;70419;42.700;23.316;2023-10-08T00:50:40;10.07;;;4.40;;
80957;SDS011;70419;42.700;23.316;2023-10-08T00:53:08;10.23;;;5.03;;
80957;SDS011;70419;42.700;23.316;2023-10-08T00:55:46;9.07;;;4.32;;
80957;SDS011;70419;42.700;23.316;2023-10-08T00:58:19;12.57;;;5.07;;
80957;SDS011;70419;42.700;23.316;2023-10-08T01:00:51;8.75;;;4.25;;
80957;SDS011;70419;42.700;23.316;2023-10-08T01:03:24;11.02;;;4.38;;
80957;SDS011;70419;42.700;23.316;2023-10-08T01:05:52;8.38;;;4.53;;
80957;SDS011;70419;42.700;23.316;2023-10-08T01:08:19;11.38;;;4.55;;
80957;SDS011;70419;42.700;23.316;2023-10-08T01:11:13;10.00;;;4.57;;
80957;SDS011;70419;42.700;23.316;2023-10-08T01:13:43;10.02;;;4.22;;
80957;SDS011;70419;42.700;23.316;2023-10-08T01:16:11;8.65;;;4.00;;
80957;SDS011;70419;42.700;23.316;2023-10-08T01:18:37;9.95;;;4.22;;
80957;SDS011;70419;42.700;23.316;2023-10-08T01:21:08;11.55;;;4.03;;
80957;SDS011;70419;42.700;23.316;2023-10-08T01:23:36;11.07;;;3.72;;
80957;SDS011;70419;42.700;23.316;2023-10-08T01:26:03;10.25;;;4.30;;
80957;SDS011;70419;42.700;23.316;2023-10-08T01:28:36;8.27;;;3.90;;
80957;SDS011;70419;42.700;23.316;2023-10-08T01:31:02;10.10;;;4.10;;
80957;SDS011;70419;42.700;23.316;2023-10-08T01:33:29;12.05;;;3.80;;
80957;SDS011;70419;42.700;23.316;2023-10-08T01:36:02;9.38;;;3.92;;
80957;SDS011;70419;42.700;23.316;2023-10-08T01:38:30;8.93;;;3.40;;
80957;SDS011;70419;42.700;23.316;2023-10-08T01:40:57;7.90;;;3.80;;
80957;SDS011;70419;42.700;23.316;2023-10-08T01:43:28;9.82;;;3.83;;
80957;SDS011;70419;42.700;23.316;2023-10-08T01:45:54;10.93;;;4.15;;
80957;SDS011;70419;42.700;23.316;2023-10-08T01:48:20;10.10;;;4.07;;
80957;SDS011;70419;42.700;23.316;2023-10-08T01:50:58;9.30;;;4.00;;
80957;SDS011;70419;42.700;23.316;2023-10-08T01:55:56;7.57;;;3.55;;
80957;SDS011;70419;42.700;23.316;2023-10-08T01:58:23;8.55;;;3.38;;
80957;SDS011;70419;42.700;23.316;2023-10-08T02:00:49;9.40;;;4.10;;
80957;SDS011;70419;42.700;23.316;2023-10-08T02:03:17;12.02;;;3.50;;
80957;SDS011;70419;42.700;23.316;2023-10-08T02:05:44;8.15;;;3.70;;
80957;SDS011;70419;42.700;23.316;2023-10-08T02:08:11;10.27;;;3.97;;
80957;SDS011;70419;42.700;23.316;2023-10-08T02:10:39;9.23;;;3.53;;
80957;SDS011;70419;42.700;23.316;2023-10-08T02:13:06;9.13;;;3.40;;
80957;SDS011;70419;42.700;23.316;2023-10-08T02:15:33;11.25;;;4.35;;
80957;SDS011;70419;42.700;23.316;2023-10-08T02:18:02;11.73;;;4.15;;
80957;SDS011;70419;42.700;23.316;2023-10-08T02:20:29;8.63;;;3.70;;
80957;SDS011;70419;42.700;23.316;2023-10-08T02:22:55;10.98;;;4.43;;
80957;SDS011;70419;42.700;23.316;2023-10-08T02:25:21;7.82;;;3.65;;
80957;SDS011;70419;42.700;23.316;2023-10-08T02:27:48;9.45;;;3.90;;
80957;SDS011;70419;42.700;23.316;2023-10-08T02:30:14;10.82;;;3.78;;
80957;SDS011;70419;42.700;23.316;2023-10-08T02:32:40;12.25;;;4.38;;
80957;SDS011;70419;42.700;23.316;2023-10-08T02:35:08;10.93;;;3.90;;
80957;SDS011;70419;42.700;23.316;2023-10-08T02:37:37;10.75;;;3.47;;
80957;SDS011;70419;42.700;23.316;2023-10-08T02:40:06;8.90;;;3.75;;
80957;SDS011;70419;42.700;23.316;2023-10-08T02:42:41;10.68;;;3.88;;
80957;SDS011;70419;42.700;23.316;2023-10-08T02:45:09;12.90;;;4.63;;
80957;SDS011;70419;42.700;23.316;2023-10-08T02:47:40;10.27;;;4.05;;
80957;SDS011;70419;42.700;23.316;2023-10-08T02:50:09;11.30;;;4.35;;
80957;SDS011;70419;42.700;23.316;2023-10-08T02:52:36;9.02;;;3.97;;
80957;SDS011;70419;42.700;23.316;2023-10-08T02:55:02;13.38;;;4.72;;
80957;SDS011;70419;42.700;23.316;2023-10-08T02:57:28;8.90;;;3.95;;
80957;SDS011;70419;42.700;23.316;2023-10-08T02:59:55;8.00;;;3.40;;
80957;SDS011;70419;42.700;23.316;2023-10-08T03:02:21;9.20;;;4.43;;
80957;SDS011;70419;42.700;23.316;2023-10-08T03:04:47;14.07;;;4.97;;
80957;SDS011;70419;42.700;23.316;2023-10-08T03:07:16;12.27;;;4.40;;
80957;SDS011;70419;42.700;23.316;2023-10-08T03:09:57;10.27;;;4.18;;
80957;SDS011;70419;42.700;23.316;2023-10-08T03:12:34;12.95;;;4.55;;
80957;SDS011;70419;42.700;23.316;2023-10-08T03:15:00;10.82;;;4.00;;
80957;SDS011;70419;42.700;23.316;2023-10-08T03:17:38;13.75;;;4.38;;
80957;SDS011;70419;42.700;23.316;2023-10-08T03:20:09;12.82;;;4.57;;
80957;SDS011;70419;42.700;23.316;2023-10-08T03:22:45;10.65;;;4.28;;
80957;SDS011;70419;42.700;23.316;2023-10-08T03:25:12;13.50;;;4.38;;
80957;SDS011;70419;42.700;23.316;2023-10-08T03:27:45;9.07;;;3.83;;
80957;SDS011;70419;42.700;23.316;2023-10-08T03:30:13;15.07;;;3.85;;
80957;SDS011;70419;42.700;23.316;2023-10-08T03:32:40;9.73;;;4.40;;
80957;SDS011;70419;42.700;23.316;2023-10-08T03:35:09;6.82;;;3.60;;
80957;SDS011;70419;42.700;23.316;2023-10-08T03:37:36;11.82;;;5.13;;
80957;SDS011;70419;42.700;23.316;2023-10-08T03:40:07;11.75;;;4.40;;
80957;SDS011;70419;42.700;23.316;2023-10-08T03:42:55;16.02;;;4.22;;
80957;SDS011;70419;42.700;23.316;2023-10-08T03:45:21;12.50;;;5.13;;
80957;SDS011;70419;42.700;23.316;2023-10-08T03:47:57;11.10;;;5.28;;
80957;SDS011;70419;42.700;23.316;2023-10-08T03:50:35;24.00;;;4.75;;
80957;SDS011;70419;42.700;23.316;2023-10-08T03:53:08;14.13;;;4.50;;
80957;SDS011;70419;42.700;23.316;2023-10-08T03:55:38;12.35;;;5.07;;
80957;SDS011;70419;42.700;23.316;2023-10-08T03:58:08;14.02;;;4.22;;
80957;SDS011;70419;42.700;23.316;2023-10-08T04:00:53;11.35;;;5.03;;
80957;SDS011;70419;42.700;23.316;2023-10-08T04:03:33;12.30;;;4.75;;
80957;SDS011;70419;42.700;23.316;2023-10-08T04:06:19;9.32;;;4.43;;
80957;SDS011;70419;42.700;23.316;2023-10-08T04:08:54;10.20;;;4.60;;
80957;SDS011;70419;42.700;23.316;2023-10-08T04:11:26;12.55;;;4.00;;
80957;SDS011;70419;42.700;23.316;2023-10-08T04:13:57;10.20;;;4.63;;
80957;SDS011;70419;42.700;23.316;2023-10-08T04:16:27;13.02;;;5.47;;
80957;SDS011;70419;42.700;23.316;2023-10-08T04:18:54;14.10;;;4.47;;
80957;SDS011;70419;42.700;23.316;2023-10-08T04:21:22;12.85;;;5.50;;
80957;SDS011;70419;42.700;23.316;2023-10-08T04:23:52;17.65;;;6.25;;
80957;SDS011;70419;42.700;23.316;2023-10-08T04:26:19;21.85;;;6.65;;
80957;SDS011;70419;42.700;23.316;2023-10-08T04:31:20;16.45;;;6.28;;
80957;SDS011;70419;42.700;23.316;2023-10-08T04:36:16;12.02;;;6.38;;
80957;SDS011;70419;42.700;23.316;2023-10-08T04:38:45;17.13;;;6.05;;
80957;SDS011;70419;42.700;23.316;2023-10-08T04:41:13;11.13;;;6.07;;
80957;SDS011;70419;42.700;23.316;2023-10-08T04:43:43;16.80;;;6.93;;
80957;SDS011;70419;42.700;23.316;2023-10-08T04:46:09;12.73;;;5.97;;
80957;SDS011;70419;42.700;23.316;2023-10-08T04:48:45;12.35;;;6.18;;
80957;SDS011;70419;42.700;23.316;2023-10-08T04:51:11;15.05;;;6.40;;
80957;SDS011;70419;42.700;23.316;2023-10-08T04:53:38;12.85;;;5.35;;
80957;SDS011;70419;42.700;23.316;2023-10-08T04:56:06;14.15;;;5.60;;
80957;SDS011;70419;42.700;23.316;2023-10-08T04:58:44;14.15;;;5.43;;
80957;SDS011;70419;42.700;23.316;2023-10-08T05:01:13;14.07;;;5.72;;
80957;SDS011;70419;42.700;23.316;2023-10-08T05:03:45;13.40;;;5.78;;
80957;SDS011;70419;42.700;23.316;2023-10-08T05:06:24;15.15;;;5.20;;
80957;SDS011;70419;42.700;23.316;2023-10-08T05:09:06;13.38;;;5.57;;
80957;SDS011;70419;42.700;23.316;2023-10-08T05:11:50;14.77;;;6.13;;
80957;SDS011;70419;42.700;23.316;2023-10-08T05:14:25;12.50;;;5.53;;
80957;SDS011;70419;42.700;23.316;2023-10-08T05:17:06;12.48;;;5.55;;
80957;SDS011;70419;42.700;23.316;2023-10-08T05:19:37;13.32;;;5.65;;
80957;SDS011;70419;42.700;23.316;2023-10-08T05:22:23;10.00;;;5.10;;
80957;SDS011;70419;42.700;23.316;2023-10-08T05:25:09;14.30;;;5.18;;
80957;SDS011;70419;42.700;23.316;2023-10-08T05:27:53;13.10;;;5.43;;
80957;SDS011;70419;42.700;23.316;2023-10-08T05:30:23;16.10;;;7.50;;
80957;SDS011;70419;42.700;23.316;2023-10-08T05:32:57;18.67;;;5.78;;
80957;SDS011;70419;42.700;23.316;2023-10-08T05:35:33;8.10;;;4.43;;
80957;SDS011;70419;42.700;23.316;2023-10-08T05:38:20;14.35;;;5.70;;
80957;SDS011;70419;42.700;23.316;2023-10-08T05:40:48;10.52;;;4.47;;
80957;SDS011;70419;42.700;23.316;2023-10-08T05:46:19;11.20;;;4.68;;
80957;SDS011;70419;42.700;23.316;2023-10-08T05:49:05;15.27;;;5.10;;
80957;SDS011;70419;42.700;23.316;2023-10-08T05:51:50;13.13;;;4.60;;
80957;SDS011;70419;42.700;23.316;2023-10-08T05:54:35;14.38;;;5.13;;
80957;SDS011;70419;42.700;23.316;2023-10-08T05:57:13;18.27;;;5.40;;
80957;SDS011;70419;42.700;23.316;2023-10-08T05:59:50;14.27;;;5.60;;
80957;SDS011;70419;42.700;23.316;2023-10-08T06:02:35;15.07;;;5.50;;
80957;SDS011;70419;42.700;23.316;2023-10-08T06:05:21;12.10;;;4.93;;
80957;SDS011;70419;42.700;23.316;2023-10-08T06:07:51;13.40;;;5.57;;
80957;SDS011;70419;42.700;23.316;2023-10-08T06:10:36;14.30;;;5.35;;
80957;SDS011;70419;42.700;23.316;2023-10-08T06:13:11;15.25;;;5.20;;
80957;SDS011;70419;42.700;23.316;2023-10-08T06:15:43;12.02;;;5.20;;
80957;SDS011;70419;42.700;23.316;2023-10-08T06:18:17;14.13;;;5.78;;
80957;SDS011;70419;42.700;23.316;2023-10-08T06:20:44;15.30;;;5.78;;
80957;SDS011;70419;42.700;23.316;2023-10-08T06:23:11;12.90;;;4.85;;
80957;SDS011;70419;42.700;23.316;2023-10-08T06:25:40;12.73;;;5.65;;
80957;SDS011;70419;42.700;23.316;2023-10-08T06:28:17;13.93;;;5.25;;
80957;SDS011;70419;42.700;23.316;2023-10-08T06:30:45;12.55;;;5.20;;
80957;SDS011;70419;42.700;23.316;2023-10-08T06:33:13;23.85;;;6.78;;
80957;SDS011;70419;42.700;23.316;2023-10-08T06:35:39;13.05;;;5.65;;
80957;SDS011;70419;42.700;23.316;2023-10-08T06:38:10;18.23;;;7.07;;
80957;SDS011;70419;42.700;23.316;2023-10-08T06:40:36;13.20;;;4.93;;
80957;SDS011;70419;42.700;23.316;2023-10-08T06:43:07;16.27;;;5.70;;
80957;SDS011;70419;42.700;23.316;2023-10-08T06:45:40;16.48;;;8.45;;
80957;SDS011;70419;42.700;23.316;2023-10-08T06:48:07;13.07;;;5.10;;
80957;SDS011;70419;42.700;23.316;2023-10-08T06:50:34;12.60;;;5.68;;
80957;SDS011;70419;42.700;23.316;2023-10-08T06:53:01;12.93;;;5.90;;
80957;SDS011;70419;42.700;23.316;2023-10-08T06:55:33;12.75;;;5.95;;
80957;SDS011;70419;42.700;23.316;2023-10-08T06:58:00;14.82;;;6.55;;
80957;SDS011;70419;42.700;23.316;2023-10-08T07:00:31;11.93;;;6.03;;
80957;SDS011;70419;42.700;23.316;2023-10-08T07:03:03;14.20;;;6.30;;
80957;SDS011;70419;42.700;23.316;2023-10-08T07:05:32;15.57;;;6.60;;
80957;SDS011;70419;42.700;23.316;2023-10-08T07:08:02;13.63;;;6.93;;
80957;SDS011;70419;42.700;23.316;2023-10-08T07:10:32;13.05;;;6.50;;
80957;SDS011;70419;42.700;23.316;2023-10-08T07:12:59;15.07;;;7.13;;
80957;SDS011;70419;42.700;23.316;2023-10-08T07:17:55;18.17;;;7.20;;
80957;SDS011;70419;42.700;23.316;2023-10-08T07:20:21;16.25;;;5.97;;
80957;SDS011;70419;42.700;23.316;2023-10-08T07:22:48;18.95;;;7.43;;
80957;SDS011;70419;42.700;23.316;2023-10-08T07:25:20;16.67;;;7.50;;
80957;SDS011;70419;42.700;23.316;2023-10-08T07:27:46;12.05;;;5.50;;
80957;SDS011;70419;42.700;23.316;2023-10-08T07:30:13;13.23;;;6.18;;
80957;SDS011;70419;42.700;23.316;2023-10-08T07:32:51;15.05;;;6.40;;
80957;SDS011;70419;42.700;23.316;2023-10-08T07:35:20;18.38;;;6.22;;
80957;SDS011;70419;42.700;23.316;2023-10-08T07:37:50;16.50;;;6.50;;
80957;SDS011;70419;42.700;23.316;2023-10-08T07:40:18;12.82;;;5.90;;
80957;SDS011;70419;42.700;23.316;2023-10-08T07:42:46;11.82;;;6.53;;
80957;SDS011;70419;42.700;23.316;2023-10-08T07:45:17;12.25;;;6.13;;
80957;SDS011;70419;42.700;23.316;2023-10-08T07:47:43;13.18;;;6.18;;
80957;SDS011;70419;42.700;23.316;2023-10-08T07:50:09;13.48;;;5.80;;
80957;SDS011;70419;42.700;23.316;2023-10-08T07:52:37;15.82;;;6.57;;
80957;SDS011;70419;42.700;23.316;2023-10-08T07:55:03;16.70;;;6.32;;
80957;SDS011;70419;42.700;23.316;2023-10-08T07:57:30;20.10;;;9.65;;
80957;SDS011;70419;42.700;23.316;2023-10-08T07:59:56;16.75;;;7.07;;
80957;SDS011;70419;42.700;23.316;2023-10-08T08:02:42;16.00;;;7.60;;
80957;SDS011;70419;42.700;23.316;2023-10-08T08:05:07;16.20;;;7.47;;
80957;SDS011;70419;42.700;23.316;2023-10-08T08:07:33;15.30;;;7.68;;
80957;SDS011;70419;42.700;23.316;2023-10-08T08:09:59;16.38;;;7.43;;
80957;SDS011;70419;42.700;23.316;2023-10-08T08:12:25;20.13;;;6.57;;
80957;SDS011;70419;42.700;23.316;2023-10-08T08:14:53;18.80;;;6.40;;
80957;SDS011;70419;42.700;23.316;2023-10-08T08:17:19;17.92;;;6.80;;
80957;SDS011;70419;42.700;23.316;2023-10-08T08:19:47;11.77;;;5.93;;
80957;SDS011;70419;42.700;23.316;2023-10-08T08:22:16;9.52;;;5.50;;
80957;SDS011;70419;42.700;23.316;2023-10-08T08:24:49;8.52;;;4.82;;
80957;SDS011;70419;42.700;23.316;2023-10-08T08:27:20;10.95;;;4.90;;
80957;SDS011;70419;42.700;23.316;2023-10-08T08:29:57;7.78;;;4.03;;
80957;SDS011;70419;42.700;23.316;2023-10-08T08:32:35;7.05;;;3.65;;
80957;SDS011;70419;42.700;23.316;2023-10-08T08:35:05;5.57;;;3.63;;
80957;SDS011;70419;42.700;23.316;2023-10-08T08:37:33;8.50;;;4.22;;
80957;SDS011;70419;42.700;23.316;2023-10-08T08:40:02;7.55;;;4.25;;
80957;SDS011;70419;42.700;23.316;2023-10-08T08:42:45;8.75;;;4.30;;
80957;SDS011;70419;42.700;23.316;2023-10-08T08:45:12;9.52;;;3.88;;
80957;SDS011;70419;42.700;23.316;2023-10-08T08:47:43;6.95;;;3.30;;
80957;SDS011;70419;42.700;23.316;2023-10-08T08:50:10;7.70;;;3.63;;
80957;SDS011;70419;42.700;23.316;2023-10-08T08:52:38;10.00;;;4.47;;
80957;SDS011;70419;42.700;23.316;2023-10-08T08:55:05;7.72;;;4.00;;
80957;SDS011;70419;42.700;23.316;2023-10-08T08:57:41;8.70;;;4.10;;
80957;SDS011;70419;42.700;23.316;2023-10-08T09:00:09;9.45;;;4.30;;
80957;SDS011;70419;42.700;23.316;2023-10-08T09:02:37;9.77;;;4.72;;
80957;SDS011;70419;42.700;23.316;2023-10-08T09:05:04;8.38;;;4.03;;
80957;SDS011;70419;42.700;23.316;2023-10-08T09:10:19;8.20;;;3.85;;
80957;SDS011;70419;42.700;23.316;2023-10-08T09:12:51;8.38;;;3.78;;
80957;SDS011;70419;42.700;23.316;2023-10-08T09:15:17;10.02;;;4.35;;
80957;SDS011;70419;42.700;23.316;2023-10-08T09:17:43;11.27;;;4.78;;
80957;SDS011;70419;42.700;23.316;2023-10-08T09:20:09;7.35;;;4.10;;
80957;SDS011;70419;42.700;23.316;2023-10-08T09:22:37;7.28;;;4.22;;
80957;SDS011;70419;42.700;23.316;2023-10-08T09:25:06;10.55;;;4.00;;
80957;SDS011;70419;42.700;23.316;2023-10-08T09:27:32;6.78;;;3.72;;
80957;SDS011;70419;42.700;23.316;2023-10-08T09:29:58;8.13;;;3.88;;
80957;SDS011;70419;42.700;23.316;2023-10-08T09:32:33;8.23;;;4.05;;
80957;SDS011;70419;42.700;23.316;2023-10-08T09:34:59;9.30;;;4.53;;
80957;SDS011;70419;42.700;23.316;2023-10-08T09:37:25;8.25;;;4.25;;
80957;SDS011;70419;42.700;23.316;2023-10-08T09:39:52;8.52;;;4.35;;
80957;SDS011;70419;42.700;23.316;2023-10-08T09:42:19;6.87;;;3.53;;
80957;SDS011;70419;42.700;23.316;2023-10-08T09:44:49;9.20;;;4.10;;
80957;SDS011;70419;42.700;23.316;2023-10-08T09:47:17;8.98;;;4.32;;
80957;SDS011;70419;42.700;23.316;2023-10-08T09:49:56;8.18;;;4.22;;
80957;SDS011;70419;42.700;23.316;2023-10-08T09:52:31;7.25;;;4.15;;
80957;SDS011;70419;42.700;23.316;2023-10-08T09:55:07;8.07;;;3.58;;
80957;SDS011;70419;42.700;23.316;2023-10-08T09:57:35;8.25;;;3.92;;
80957;SDS011;70419;42.700;23.316;2023-10-08T10:00:05;8.43;;;4.13;;
80957;SDS011;70419;42.700;23.316;2023-10-08T10:02:40;9.20;;;3.73;;
80957;SDS011;70419;42.700;23.316;2023-10-08T10:05:10;9.30;;;4.45;;
80957;SDS011;70419;42.700;23.316;2023-10-08T10:07:37;9.23;;;3.75;;
80957;SDS011;70419;42.700;23.316;2023-10-08T10:10:24;7.65;;;3.65;;
80957;SDS011;70419;42.700;23.316;2023-10-08T10:13:02;9.98;;;4.13;;
80957;SDS011;70419;42.700;23.316;2023-10-08T10:15:28;9.55;;;3.85;;
80957;SDS011;70419;42.700;23.316;2023-10-08T10:20:39;12.85;;;3.35;;
80957;SDS011;70419;42.700;23.316;2023-10-08T10:23:33;16.75;;;4.57;;
80957;SDS011;70419;42.700;23.316;2023-10-08T10:31:47;18.40;;;3.92;;
80957;SDS011;70419;42.700;23.316;2023-10-08T10:34:20;8.95;;;4.05;;
80957;SDS011;70419;42.700;23.316;2023-10-08T10:36:51;8.80;;;3.75;;
80957;SDS011;70419;42.700;23.316;2023-10-08T10:39:26;13.07;;;3.63;;
80957;SDS011;70419;42.700;23.316;2023-10-08T10:41:53;7.40;;;3.78;;
80957;SDS011;70419;42.700;23.316;2023-10-08T10:44:22;15.30;;;3.97;;
80957;SDS011;70419;42.700;23.316;2023-10-08T10:46:49;9.57;;;4.05;;
80957;SDS011;70419;42.700;23.316;2023-10-08T10:49:19;10.68;;;3.80;;
80957;SDS011;70419;42.700;23.316;2023-10-08T10:51:47;9.32;;;4.00;;
80957;SDS011;70419;42.700;23.316;2023-10-08T10:54:17;10.10;;;4.47;;
80957;SDS011;70419;42.700;23.316;2023-10-08T10:56:48;10.85;;;4.07;;
80957;SDS011;70419;42.700;23.316;2023-10-08T10:59:29;6.97;;;3.22;;
80957;SDS011;70419;42.700;23.316;2023-10-08T11:02:02;8.93;;;3.72;;
80957;SDS011;70419;42.700;23.316;2023-10-08T11:04:33;8.30;;;4.03;;
80957;SDS011;70419;42.700;23.316;2023-10-08T11:07:12;8.05;;;4.15;;
80957;SDS011;70419;42.700;23.316;2023-10-08T11:09:41;6.30;;;3.63;;
80957;SDS011;70419;42.700;23.316;2023-10-08T11:12:12;8.88;;;3.78;;
80957;SDS011;70419;42.700;23.316;2023-10-08T11:14:48;19.35;;;4.38;;
80957;SDS011;70419;42.700;23.316;2023-10-08T11:17:18;7.55;;;4.03;;
80957;SDS011;70419;42.700;23.316;2023-10-08T11:19:49;8.75;;;3.78;;
80957;SDS011;70419;42.700;23.316;2023-10-08T11:22:16;5.45;;;3.65;;
80957;SDS011;70419;42.700;23.316;2023-10-08T11:24:44;7.90;;;3.47;;
80957;SDS011;70419;42.700;23.316;2023-10-08T11:27:15;7.53;;;3.53;;
80957;SDS011;70419;42.700;23.316;2023-10-08T11:29:43;11.40;;;3.83;;
80957;SDS011;70419;42.700;23.316;2023-10-08T11:32:11;8.68;;;3.60;;
80957;SDS011;70419;42.700;23.316;2023-10-08T11:34:40;8.93;;;3.55;;
80957;SDS011;70419;42.700;23.316;2023-10-08T11:37:06;11.65;;;3.25;;
80957;SDS011;70419;42.700;23.316;2023-10-08T11:39:45;10.13;;;3.28;;
80957;SDS011;70419;42.700;23.316;2023-10-08T11:42:11;8.20;;;3.58;;
80957;SDS011;70419;42.700;23.316;2023-10-08T11:44:57;12.00;;;3.17;;
80957;SDS011;70419;42.700;23.316;2023-10-08T11:47:25;9.35;;;3.40;;
80957;SDS011;70419;42.700;23.316;2023-10-08T11:50:01;13.50;;;3.60;;
80957;SDS011;70419;42.700;23.316;2023-10-08T11:52:35;9.90;;;3.08;;
80957;SDS011;70419;42.700;23.316;2023-10-08T11:55:07;8.65;;;3.95;;
80957;SDS011;70419;42.700;23.316;2023-10-08T11:57:36;8.93;;;3.05;;
80957;SDS011;70419;42.700;23.316;2023-10-08T12:00:13;8.50;;;3.15;;
80957;SDS011;70419;42.700;23.316;2023-10-08T12:02:49;13.25;;;3.90;;
80957;SDS011;70419;42.700;23.316;2023-10-08T12:05:17;11.93;;;3.30;;
80957;SDS011;70419;42.700;23.316;2023-10-08T12:07:45;11.13;;;3.28;;
80957;SDS011;70419;42.700;23.316;2023-10-08T12:10:12;9.35;;;3.38;;
80957;SDS011;70419;42.700;23.316;2023-10-08T12:12:42;14.98;;;3.28;;
80957;SDS011;70419;42.700;23.316;2023-10-08T12:15:10;19.35;;;3.97;;
80957;SDS011;70419;42.700;23.316;2023-10-08T12:17:37;14.55;;;3.45;;
80957;SDS011;70419;42.700;23.316;2023-10-08T12:20:05;25.55;;;4.28;;
80957;SDS011;70419;42.700;23.316;2023-10-08T12:22:51;8.35;;;3.17;;
80957;SDS011;70419;42.700;23.316;2023-10-08T12:25:17;10.43;;;3.63;;
80957;SDS011;70419;42.700;23.316;2023-10-08T12:27:43;11.73;;;3.50;;
80957;SDS011;70419;42.700;23.316;2023-10-08T12:30:09;12.00;;;3.20;;
80957;SDS011;70419;42.700;23.316;2023-10-08T12:32:36;15.98;;;3.95;;
80957;SDS011;70419;42.700;23.316;2023-10-08T12:35:07;12.23;;;3.78;;
80957;SDS011;70419;42.700;23.316;2023-10-08T12:37:39;8.05;;;3.42;;
80957;SDS011;70419;42.700;23.316;2023-10-08T12:40:06;18.88;;;3.97;;
80957;SDS011;70419;42.700;23.316;2023-10-08T12:42:37;7.85;;;3.40;;
80957;SDS011;70419;42.700;23.316;2023-10-08T12:45:04;13.25;;;3.45;;
80957;SDS011;70419;42.700;23.316;2023-10-08T12:47:37;11.13;;;3.08;;
80957;SDS011;70419;42.700;23.316;2023-10-08T12:50:04;14.27;;;3.63;;
80957;SDS011;70419;42.700;23.316;2023-10-08T12:52:33;21.83;;;4.22;;
80957;SDS011;70419;42.700;23.316;2023-10-08T12:55:00;13.27;;;3.60;;
80957;SDS011;70419;42.700;23.316;2023-10-08T12:57:29;14.55;;;3.53;;
80957;SDS011;70419;42.700;23.316;2023-10-08T13:00:00;7.82;;;3.35;;
80957;SDS011;70419;42.700;23.316;2023-10-08T13:02:27;9.80;;;3.83;;
80957;SDS011;70419;42.700;23.316;2023-10-08T13:04:54;8.50;;;2.92;;
80957;SDS011;70419;42.700;23.316;2023-10-08T13:07:20;13.43;;;3.10;;
80957;SDS011;70419;42.700;23.316;2023-10-08T13:09:47;11.23;;;3.13;;
80957;SDS011;70419;42.700;23.316;2023-10-08T13:12:13;15.88;;;3.30;;
80957;SDS011;70419;42.700;23.316;2023-10-08T13:14:41;9.35;;;3.15;;
80957;SDS011;70419;42.700;23.316;2023-10-08T13:17:09;10.82;;;3.08;;
80957;SDS011;70419;42.700;23.316;2023-10-08T13:19:36;13.32;;;3.65;;
80957;SDS011;70419;42.700;23.316;2023-10-08T13:22:02;14.15;;;2.85;;
80957;SDS011;70419;42.700;23.316;2023-10-08T13:24:34;11.00;;;3.35;;
80957;SDS011;70419;42.700;23.316;2023-10-08T13:27:00;11.93;;;3.33;;
80957;SDS011;70419;42.700;23.316;2023-10-08T13:29:26;13.85;;;3.17;;
80957;SDS011;70419;42.700;23.316;2023-10-08T13:31:56;11.48;;;3.70;;
80957;SDS011;70419;42.700;23.316;2023-10-08T13:34:22;11.43;;;3.28;;
80957;SDS011;70419;42.700;23.316;2023-10-08T13:36:48;9.80;;;3.47;;
80957;SDS011;70419;42.700;23.316;2023-10-08T13:39:14;12.68;;;3.45;;
80957;SDS011;70419;42.700;23.316;2023-10-08T13:41:44;10.98;;;3.92;;
80957;SDS011;70419;42.700;23.316;2023-10-08T13:44:13;15.00;;;3.67;;
80957;SDS011;70419;42.700;23.316;2023-10-08T13:46:39;10.10;;;3.75;;
80957;SDS011;70419;42.700;23.316;2023-10-08T13:49:13;9.25;;;3.15;;
80957;SDS011;70419;42.700;23.316;2023-10-08T13:51:41;11.48;;;3.80;;
80957;SDS011;70419;42.700;23.316;2023-10-08T13:54:09;9.70;;;3.10;;
80957;SDS011;70419;42.700;23.316;2023-10-08T13:56:36;15.60;;;3.55;;
80957;SDS011;70419;42.700;23.316;2023-10-08T13:59:03;11.10;;;3.60;;
80957;SDS011;70419;42.700;23.316;2023-10-08T14:01:37;13.48;;;3.22;;
80957;SDS011;70419;42.700;23.316;2023-10-08T14:04:06;10.25;;;2.70;;
80957;SDS011;70419;42.700;23.316;2023-10-08T14:06:33;10.05;;;3.15;;
80957;SDS011;70419;42.700;23.316;2023-10-08T14:08:59;12.75;;;2.90;;
80957;SDS011;70419;42.700;23.316;2023-10-08T14:11:26;15.90;;;3.67;;
80957;SDS011;70419;42.700;23.316;2023-10-08T14:13:55;8.45;;;2.83;;
80957;SDS011;70419;42.700;23.316;2023-10-08T14:16:23;12.25;;;2.95;;
80957;SDS011;70419;42.700;23.316;2023-10-08T14:18:54;8.60;;;2.80;;
80957;SDS011;70419;42.700;23.316;2023-10-08T14:21:21;14.48;;;3.17;;
80957;SDS011;70419;42.700;23.316;2023-10-08T14:23:50;11.40;;;2.97;;
80957;SDS011;70419;42.700;23.316;2023-10-08T14:26:17;14.90;;;3.00;;
80957;SDS011;70419;42.700;23.316;2023-10-08T14:28:47;13.50;;;3.50;;
80957;SDS011;70419;42.700;23.316;2023-10-08T14:31:24;14.20;;;3.65;;
80957;SDS011;70419;42.700;23.316;2023-10-08T14:33:52;18.33;;;4.80;;
80957;SDS011;70419;42.700;23.316;2023-10-08T14:36:24;18.95;;;3.60;;
80957;SDS011;70419;42.700;23.316;2023-10-08T14:39:00;17.30;;;3.92;;
80957;SDS011;70419;42.700;23.316;2023-10-08T14:41:36;15.95;;;3.60;;
80957;SDS011;70419;42.700;23.316;2023-10-08T14:44:14;22.57;;;3.73;;
80957;SDS011;70419;42.700;23.316;2023-10-08T14:46:40;25.50;;;5.03;;
80957;SDS011;70419;42.700;23.316;2023-10-08T14:49:05;19.90;;;5.90;;
80957;SDS011;70419;42.700;23.316;2023-10-08T14:51:34;18.73;;;6.57;;
80957;SDS011;70419;42.700;23.316;2023-10-08T14:54:00;30.02;;;7.05;;
80957;SDS011;70419;42.700;23.316;2023-10-08T14:56:26;20.83;;;5.85;;
80957;SDS011;70419;42.700;23.316;2023-10-08T14:58:55;18.77;;;5.15;;
80957;SDS011;70419;42.700;23.316;2023-10-08T15:01:21;12.45;;;5.00;;
80957;SDS011;70419;42.700;23.316;2023-10-08T15:06:17;16.98;;;3.28;;
80957;SDS011;70419;42.700;23.316;2023-10-08T15:08:44;17.25;;;4.30;;
80957;SDS011;70419;42.700;23.316;2023-10-08T15:11:11;11.65;;;3.97;;